EDT,Max TemperatureF,Mean TemperatureF,Min TemperatureF,Max Dew PointF,MeanDew PointF,Min DewpointF,Max Humidity, Mean Humidity, Min Humidity, Max Sea Level PressureIn, Mean Sea Level PressureIn, Min Sea Level PressureIn, Max VisibilityMiles, Mean VisibilityMiles, Min VisibilityMiles, Max Wind SpeedMPH, Mean Wind SpeedMPH, Max Gust SpeedMPH,PrecipitationIn, CloudCover, Events, WindDirDegrees
2012-10-1,68,64,60,68,64,61,100,100,100,29.88,29.85,29.81,10,4,0,9,3,,0.00,7,Fog-Rain-Thunderstorm,64
2012-10-2,84,76,68,77,74,68,100,94,66,29.99,29.85,29.77,10,8,2,8,3,,0.00,5,Rain,180
2012-10-3,78,72,66,73,69,66,100,92,65,30.22,30.10,29.99,10,8,2,9,1,,0.00,1,Rain,244
2012-10-4,80,70,60,73,66,61,100,93,54,30.27,30.22,30.18,10,7,2,5,0,,0.00,2,Rain,257
2012-10-5,82,70,57,66,60,55,100,83,39,30.22,30.14,30.04,10,7,0,7,1,,0.00,0,Fog,125
2012-10-6,82,68,55,75,62,55,100,85,45,30.05,29.97,29.90,10,7,1,13,2,,0.00,0,,246
2012-10-7,68,62,55,66,59,54,100,95,83,30.13,30.03,29.96,10,10,7,13,5,21,0.00,4,Thunderstorm,28
2012-10-8,55,52,48,54,50,48,100,90,82,30.19,30.15,30.10,10,10,3,12,7,17,0.00,8,,31
2012-10-9,57,52,48,55,51,48,100,96,82,30.19,30.14,30.10,10,9,3,8,5,,0.00,8,,351
2012-10-10,73,57,41,61,51,41,100,86,46,30.14,30.09,30.04,10,7,0,9,2,,0.00,2,Fog,259
2012-10-11,68,54,39,57,45,37,100,82,33,30.32,30.24,30.15,10,8,2,9,1,,0.00,0,,73
2012-10-12,73,58,44,63,51,45,100,87,44,30.31,30.23,30.19,10,8,4,7,0,,0.00,1,Thunderstorm,31
2012-10-13,68,57,46,57,50,43,100,82,46,30.46,30.38,30.31,10,10,5,10,3,,0.00,0,,45
2012-10-14,77,60,44,68,58,45,100,90,57,30.33,30.20,30.05,10,9,4,6,1,,0.00,4,,152
2012-10-15,77,65,53,72,61,45,100,82,43,30.05,29.89,29.76,10,10,4,14,3,21,0.00,2,Rain-Thunderstorm,248
2012-10-16,71,58,44,54,45,37,100,73,29,30.00,29.93,29.89,10,10,8,9,4,,0.00,0,,7
2012-10-17,71,56,42,55,47,43,100,81,35,30.02,29.95,29.92,10,9,5,6,1,,0.00,0,,162
2012-10-18,78,62,46,66,58,46,100,89,57,29.93,29.86,29.78,10,9,4,8,1,,0.00,2,,153
2012-10-19,73,58,44,63,44,27,100,67,18,29.83,29.79,29.74,10,8,0,16,3,25,0.00,0,Fog,236
2012-10-20,71,56,41,52,44,39,100,75,33,29.97,29.86,29.80,10,10,10,10,2,,0.00,0,,277
2012-10-21,71,55,39,50,44,37,100,75,29,30.17,30.10,29.98,10,10,9,8,2,,0.00,0,,14
2012-10-22,77,58,39,57,46,39,100,78,32,30.26,30.19,30.15,10,9,5,4,0,,0.00,0,,258
2012-10-23,78,60,41,59,50,41,100,79,34,30.23,30.17,30.12,10,9,5,5,1,,0.00,0,Rain,225
2012-10-24,82,63,44,64,52,45,100,81,32,30.22,30.16,30.10,10,9,4,5,1,,0.00,0,,199
2012-10-25,82,64,46,64,56,46,100,87,45,30.17,30.12,30.08,10,8,3,7,1,,0.00,0,,63
2012-10-26,77,65,53,64,58,54,100,83,47,30.10,30.02,29.93,10,8,2,14,4,20,0.00,0,,35
2012-10-27,73,68,62,64,60,52,100,81,60,29.92,29.78,29.69,10,10,10,17,10,24,0.00,3,,11
2012-10-28,69,62,53,54,49,39,82,62,43,29.72,29.67,29.62,10,10,10,16,10,22,0.00,1,Rain,347
2012-10-29,55,48,41,39,33,30,81,56,38,29.69,29.63,29.54,10,10,10,17,10,28,0.00,1,Rain,298
2012-10-30,53,47,41,36,30,27,81,50,38,29.69,29.56,29.48,10,10,10,16,12,24,0.00,1,Rain,271
2012-10-31,64,50,35,36,33,28,87,61,27,29.82,29.73,29.68,10,10,10,15,4,22,0.00,0,,254